Time;durP1;ratioP1;P1;durP2;ratioP2;P2;SDS_P1;SDS_P2;PMS_P1;PMS_P2;Temp;Humidity;BMP_temperature;BMP_pressure;BME280_temperature;BME280_humidity;BME280_pressure;Samples;Min_cycle;Max_cycle;Signal;HPM_P1;HPM_P2
2022/07/22 00:00:25;;;;;;;;;;;18.40;99.90;;;;;;5071871;28;19919;-72
2022/07/22 00:02:51;;;;;;;;;;;18.40;99.90;;;;;;5072967;28;19917;-73
2022/07/22 00:05:16;;;;;;;;;;;18.40;99.90;;;;;;5073158;28;19917;-72
2022/07/22 00:07:42;;;;;;;;;;;18.40;99.90;;;;;;5073012;28;19912;-72
2022/07/22 00:10:10;;;;;;;;;;;18.30;99.90;;;;;;5073349;28;19920;-72
2022/07/22 00:12:36;;;;;;;;;;;18.40;99.90;;;;;;5071515;28;19966;-73
2022/07/22 00:15:02;;;;;;;;;;;18.40;99.90;;;;;;5073016;28;19916;-73
2022/07/22 00:17:28;;;;;;;;;;;18.40;99.90;;;;;;5072989;28;20316;-73
2022/07/22 00:19:53;;;;;;;;;;;18.40;99.90;;;;;;5072910;28;20291;-72
2022/07/22 00:22:19;;;;;;;;;;;18.40;99.90;;;;;;5071447;28;20337;-73
2022/07/22 00:24:44;;;;;;;;;;;18.40;99.90;;;;;;5073195;28;19920;-72
2022/07/22 00:27:10;;;;;;;;;;;18.40;99.90;;;;;;5072302;28;19912;-73
2022/07/22 00:29:35;;;;;;;;;;;18.30;99.90;;;;;;5072543;28;20021;-72
2022/07/22 00:32:01;;;;;;;;;;;18.30;99.90;;;;;;5072832;28;19920;-72
2022/07/22 00:34:26;;;;;;;;;;;18.30;99.90;;;;;;5072823;28;19936;-73
2022/07/22 00:36:52;;;;;;;;;;;18.30;99.90;;;;;;5072395;28;20279;-72
2022/07/22 00:39:18;;;;;;;;;;;18.20;99.90;;;;;;5072381;28;19917;-72
2022/07/22 00:41:44;;;;;;;;;;;18.20;99.90;;;;;;5071044;28;19917;-72
2022/07/22 00:44:09;;;;;;;;;;;18.20;99.90;;;;;;5072334;28;20211;-72
2022/07/22 00:46:36;;;;;;;;;;;18.20;99.90;;;;;;5072342;28;19915;-72
2022/07/22 00:49:04;;;;;;;;;;;18.10;99.90;;;;;;5072416;28;20286;-72
2022/07/22 00:51:30;;;;;;;;;;;18.10;99.90;;;;;;5072262;28;19915;-72
2022/07/22 00:53:56;;;;;;;;;;;18.10;99.90;;;;;;5072223;28;19920;-72
2022/07/22 00:56:22;;;;;;;;;;;18.00;99.90;;;;;;5072331;28;19908;-72
2022/07/22 00:58:49;;;;;;;;;;;18.00;99.90;;;;;;5071875;28;19921;-73
2022/07/22 01:01:15;;;;;;;;;;;18.00;99.90;;;;;;5070832;28;20236;-73
2022/07/22 01:03:40;;;;;;;;;;;17.90;99.90;;;;;;5072473;28;19924;-72
2022/07/22 01:06:06;;;;;;;;;;;18.00;99.90;;;;;;5070832;28;19920;-73
2022/07/22 01:08:32;;;;;;;;;;;17.90;99.90;;;;;;5072058;28;19919;-72
2022/07/22 01:11:11;;;;;;;;;;;17.90;99.90;;;;;;5072039;28;19923;-73
2022/07/22 01:13:37;;;;;;;;;;;17.90;99.90;;;;;;5072282;28;20012;-72
2022/07/22 01:16:03;;;;;;;;;;;17.90;99.90;;;;;;5070620;28;19913;-72
2022/07/22 01:18:29;;;;;;;;;;;17.80;99.90;;;;;;5072311;28;19920;-72
2022/07/22 01:20:54;;;;;;;;;;;17.80;99.90;;;;;;5072121;28;20257;-72
2022/07/22 01:23:20;;;;;;;;;;;17.80;99.90;;;;;;5072247;28;19970;-72
2022/07/22 01:25:45;;;;;;;;;;;17.80;99.90;;;;;;5072031;28;19916;-72
2022/07/22 01:28:11;;;;;;;;;;;17.80;99.90;;;;;;5072109;28;19917;-72
2022/07/22 01:30:36;;;;;;;;;;;17.80;99.90;;;;;;5072151;28;19913;-73
2022/07/22 01:33:02;;;;;;;;;;;17.80;99.90;;;;;;5071997;28;19920;-72
2022/07/22 01:35:27;;;;;;;;;;;17.80;99.90;;;;;;5071413;28;19913;-72
2022/07/22 01:37:52;;;;;;;;;;;17.80;99.90;;;;;;5070824;28;19927;-72
2022/07/22 01:40:18;;;;;;;;;;;17.80;99.90;;;;;;5070936;28;19912;-73
2022/07/22 01:42:44;;;;;;;;;;;17.80;99.90;;;;;;5071612;28;20296;-72
2022/07/22 01:45:09;;;;;;;;;;;17.80;99.90;;;;;;5071512;28;20357;-73
2022/07/22 01:47:35;;;;;;;;;;;17.80;99.90;;;;;;5071516;28;19912;-72
2022/07/22 01:50:00;;;;;;;;;;;17.80;99.90;;;;;;5071254;28;19931;-73
2022/07/22 01:52:26;;;;;;;;;;;17.80;99.90;;;;;;5071386;28;19969;-73
2022/07/22 01:54:51;;;;;;;;;;;17.80;99.90;;;;;;5071122;28;19923;-73
2022/07/22 01:57:17;;;;;;;;;;;17.80;99.90;;;;;;5071252;28;19917;-73
2022/07/22 01:59:42;;;;;;;;;;;17.80;99.90;;;;;;5071076;28;19917;-71
2022/07/22 02:02:08;;;;;;;;;;;17.80;99.90;;;;;;5071043;28;20341;-71
2022/07/22 02:04:33;;;;;;;;;;;17.70;99.90;;;;;;5069490;28;19923;-71
2022/07/22 02:06:59;;;;;;;;;;;17.70;99.90;;;;;;5070932;28;20348;-71
2022/07/22 02:09:24;;;;;;;;;;;17.70;99.90;;;;;;5070870;28;19960;-71
2022/07/22 02:11:50;;;;;;;;;;;17.70;99.90;;;;;;5070803;28;19920;-71
2022/07/22 02:14:15;;;;;;;;;;;17.60;99.90;;;;;;5070821;28;20387;-73
2022/07/22 02:16:41;;;;;;;;;;;17.70;99.90;;;;;;5070949;28;20344;-71
2022/07/22 02:19:06;;;;;;;;;;;17.60;99.90;;;;;;5071295;28;19969;-71
2022/07/22 02:21:32;;;;;;;;;;;17.60;99.90;;;;;;5070505;28;19909;-71
2022/07/22 02:23:57;;;;;;;;;;;17.60;99.90;;;;;;5070751;28;19920;-72
2022/07/22 02:26:23;;;;;;;;;;;17.50;99.90;;;;;;5070566;28;19913;-71
2022/07/22 02:28:48;;;;;;;;;;;17.60;99.90;;;;;;5076062;28;19920;-72
2022/07/22 02:31:14;;;;;;;;;;;17.60;99.90;;;;;;5074198;28;19923;-71
2022/07/22 02:33:39;;;;;;;;;;;17.60;99.90;;;;;;5071094;28;20061;-71
2022/07/22 02:36:05;;;;;;;;;;;17.40;99.90;;;;;;5070640;28;19956;-71
2022/07/22 02:38:31;;;;;;;;;;;17.60;99.90;;;;;;5070446;28;19920;-71
2022/07/22 02:40:56;;;;;;;;;;;17.60;99.90;;;;;;5070752;28;19912;-71
2022/07/22 02:43:22;;;;;;;;;;;17.50;99.90;;;;;;5071027;28;20256;-71
2022/07/22 02:45:47;;;;;;;;;;;17.60;99.90;;;;;;5069133;28;19995;-72
2022/07/22 02:48:13;;;;;;;;;;;17.60;99.90;;;;;;5070414;28;20360;-72
2022/07/22 02:50:44;;;;;;;;;;;17.60;99.90;;;;;;5070287;28;19916;-72
2022/07/22 02:53:09;;;;;;;;;;;17.60;99.90;;;;;;5070838;28;19908;-72
2022/07/22 02:55:35;;;;;;;;;;;17.50;99.90;;;;;;5070250;28;20295;-72
2022/07/22 02:58:05;;;;;;;;;;;17.50;99.90;;;;;;5070505;28;20015;-72
2022/07/22 03:00:30;;;;;;;;;;;17.60;99.90;;;;;;5070506;28;20440;-72
2022/07/22 03:02:56;;;;;;;;;;;17.50;99.90;;;;;;5070553;28;19912;-71
2022/07/22 03:05:21;;;;;;;;;;;17.50;99.90;;;;;;5070159;28;19916;-71
2022/07/22 03:07:48;;;;;;;;;;;17.50;99.90;;;;;;5070509;28;20003;-71
2022/07/22 03:10:14;;;;;;;;;;;17.60;99.90;;;;;;5070295;28;19917;-71
2022/07/22 03:12:39;;;;;;;;;;;17.60;99.90;;;;;;5069062;28;19912;-71
2022/07/22 03:15:05;;;;;;;;;;;17.60;99.90;;;;;;5069101;28;19916;-73
2022/07/22 03:17:34;;;;;;;;;;;17.60;99.90;;;;;;5070412;28;19909;-73
2022/07/22 03:20:04;;;;;;;;;;;17.60;99.90;;;;;;5070174;28;19920;-72
2022/07/22 03:22:30;;;;;;;;;;;17.50;99.90;;;;;;5069193;28;19958;-72
2022/07/22 03:24:55;;;;;;;;;;;17.50;99.90;;;;;;5068813;28;19921;-72
2022/07/22 03:27:20;;;;;;;;;;;17.50;99.90;;;;;;5070338;28;19915;-72
2022/07/22 03:29:46;;;;;;;;;;;17.60;99.90;;;;;;5070124;28;19917;-72
2022/07/22 03:32:11;;;;;;;;;;;17.70;99.90;;;;;;5070059;28;20003;-73
2022/07/22 03:34:37;;;;;;;;;;;17.70;99.90;;;;;;5070293;28;20360;-72
2022/07/22 03:37:03;;;;;;;;;;;17.60;99.90;;;;;;5069815;28;19936;-72
2022/07/22 03:39:28;;;;;;;;;;;17.60;99.90;;;;;;5068706;28;19924;-72
2022/07/22 03:41:54;;;;;;;;;;;17.70;99.90;;;;;;5069896;28;19917;-72
2022/07/22 03:44:19;;;;;;;;;;;17.70;99.90;;;;;;5070164;28;20306;-72
2022/07/22 03:46:45;;;;;;;;;;;17.70;99.90;;;;;;5069789;28;19913;-72
2022/07/22 03:49:10;;;;;;;;;;;17.70;99.90;;;;;;5069817;28;19912;-72
2022/07/22 03:51:36;;;;;;;;;;;17.80;99.90;;;;;;5070043;28;19908;-73
2022/07/22 03:54:01;;;;;;;;;;;17.80;99.90;;;;;;5069891;28;20007;-72
2022/07/22 03:56:27;;;;;;;;;;;17.80;99.90;;;;;;5069911;28;19908;-72
2022/07/22 03:58:52;;;;;;;;;;;17.90;99.90;;;;;;5069651;28;19917;-72
2022/07/22 04:01:18;;;;;;;;;;;17.90;99.90;;;;;;5069736;28;20403;-72
2022/07/22 04:03:43;;;;;;;;;;;17.90;99.90;;;;;;5073742;28;20595;-72
2022/07/22 04:06:09;;;;;;;;;;;17.80;99.90;;;;;;5073090;28;20282;-72
2022/07/22 04:08:34;;;;;;;;;;;17.90;99.90;;;;;;5073607;28;20018;-72
2022/07/22 04:11:00;;;;;;;;;;;17.90;99.90;;;;;;5073064;28;20006;-72
2022/07/22 04:13:25;;;;;;;;;;;17.90;99.90;;;;;;5073434;28;20359;-72
2022/07/22 04:15:51;;;;;;;;;;;17.80;99.90;;;;;;5073012;28;19917;-72
2022/07/22 04:18:17;;;;;;;;;;;17.80;99.90;;;;;;5071797;28;19916;-72
2022/07/22 04:20:43;;;;;;;;;;;18.00;99.90;;;;;;5073224;28;19916;-72
2022/07/22 04:23:08;;;;;;;;;;;18.00;99.90;;;;;;5073193;28;20422;-72
2022/07/22 04:25:34;;;;;;;;;;;18.10;99.90;;;;;;5072924;28;19916;-72
2022/07/22 04:27:59;;;;;;;;;;;18.20;99.90;;;;;;5072818;28;20008;-73
2022/07/22 04:30:25;;;;;;;;;;;18.30;99.90;;;;;;5072911;28;20372;-73
2022/07/22 04:32:50;;;;;;;;;;;18.40;99.90;;;;;;5072924;28;19912;-72
2022/07/22 04:35:16;;;;;;;;;;;18.50;99.90;;;;;;5072673;28;19923;-73
2022/07/22 04:37:41;;;;;;;;;;;18.40;99.90;;;;;;5072476;28;20411;-72
2022/07/22 04:40:07;;;;;;;;;;;18.50;99.90;;;;;;5072733;28;19916;-72
2022/07/22 04:42:33;;;;;;;;;;;18.50;99.90;;;;;;5072805;28;20005;-72
2022/07/22 04:44:58;;;;;;;;;;;18.60;99.90;;;;;;5072639;28;19935;-72
2022/07/22 04:47:24;;;;;;;;;;;18.70;99.90;;;;;;5072708;28;19921;-72
2022/07/22 04:49:49;;;;;;;;;;;18.90;99.90;;;;;;5072306;28;20471;-73
2022/07/22 04:52:15;;;;;;;;;;;19.00;99.90;;;;;;5072422;28;19913;-73
2022/07/22 04:54:40;;;;;;;;;;;19.10;99.90;;;;;;5070932;28;19978;-73
2022/07/22 04:57:05;;;;;;;;;;;19.10;99.90;;;;;;5070768;28;20283;-72
2022/07/22 04:59:31;;;;;;;;;;;19.10;99.90;;;;;;5071977;28;19916;-72
2022/07/22 05:01:56;;;;;;;;;;;19.20;99.90;;;;;;5072127;28;19916;-72
2022/07/22 05:04:22;;;;;;;;;;;19.10;99.90;;;;;;5072292;28;20288;-72
2022/07/22 05:06:47;;;;;;;;;;;19.10;99.90;;;;;;5072446;28;19916;-72
2022/07/22 05:09:13;;;;;;;;;;;19.10;99.90;;;;;;5071337;28;19913;-72
2022/07/22 05:11:39;;;;;;;;;;;19.10;99.90;;;;;;5071856;28;19912;-72
2022/07/22 05:14:04;;;;;;;;;;;19.20;99.90;;;;;;5070676;28;19916;-72
2022/07/22 05:16:30;;;;;;;;;;;19.20;99.90;;;;;;5070464;28;20299;-72
2022/07/22 05:18:55;;;;;;;;;;;19.30;99.90;;;;;;5071636;28;20386;-72
2022/07/22 05:21:21;;;;;;;;;;;19.30;99.90;;;;;;5071497;28;20109;-73
2022/07/22 05:23:46;;;;;;;;;;;19.30;99.90;;;;;;5071728;28;20428;-72
2022/07/22 05:26:12;;;;;;;;;;;19.30;99.90;;;;;;5072291;28;20088;-72
2022/07/22 05:28:37;;;;;;;;;;;19.20;99.90;;;;;;5071597;28;19971;-72
2022/07/22 05:31:03;;;;;;;;;;;19.10;99.90;;;;;;5070646;28;19944;-72
2022/07/22 05:33:29;;;;;;;;;;;19.20;99.90;;;;;;5071875;28;19916;-72
2022/07/22 05:35:54;;;;;;;;;;;19.20;99.90;;;;;;5071436;28;19924;-72
2022/07/22 05:38:19;;;;;;;;;;;19.30;99.90;;;;;;5070979;28;19924;-73
2022/07/22 05:40:45;;;;;;;;;;;19.40;99.90;;;;;;5071246;28;19913;-72
2022/07/22 05:43:11;;;;;;;;;;;19.60;99.90;;;;;;5071515;28;20060;-72
2022/07/22 05:45:36;;;;;;;;;;;19.60;99.90;;;;;;5071620;28;20316;-72
2022/07/22 05:48:02;;;;;;;;;;;19.60;99.90;;;;;;5069882;28;20204;-72
2022/07/22 05:50:27;;;;;;;;;;;19.70;99.90;;;;;;5070110;28;20455;-73
2022/07/22 05:52:53;;;;;;;;;;;19.70;99.90;;;;;;5071429;28;20332;-72
2022/07/22 05:55:18;;;;;;;;;;;19.60;99.90;;;;;;5071305;28;20586;-72
2022/07/22 05:57:44;;;;;;;;;;;19.80;99.90;;;;;;5071305;28;19916;-72
2022/07/22 06:00:10;;;;;;;;;;;19.80;99.90;;;;;;5071105;28;19920;-72
2022/07/22 06:02:35;;;;;;;;;;;19.80;99.90;;;;;;5070812;28;19921;-72
2022/07/22 06:05:01;;;;;;;;;;;19.80;99.90;;;;;;5071097;28;19922;-73
2022/07/22 06:07:26;;;;;;;;;;;19.80;99.90;;;;;;5071292;28;20319;-73
2022/07/22 06:09:52;;;;;;;;;;;19.90;99.90;;;;;;5071036;28;20014;-73
2022/07/22 06:12:18;;;;;;;;;;;19.90;99.90;;;;;;5069913;28;20008;-73
2022/07/22 06:14:43;;;;;;;;;;;19.90;99.90;;;;;;5070879;28;19917;-72
2022/07/22 06:17:09;;;;;;;;;;;20.00;99.90;;;;;;5071355;28;19920;-72
2022/07/22 06:19:34;;;;;;;;;;;20.00;99.90;;;;;;5070702;28;19988;-72
2022/07/22 06:22:00;;;;;;;;;;;20.00;99.90;;;;;;5070932;28;19922;-72
2022/07/22 06:24:26;;;;;;;;;;;20.20;99.90;;;;;;5070129;28;20375;-73
2022/07/22 06:26:51;;;;;;;;;;;20.20;99.90;;;;;;5069420;28;19917;-72
2022/07/22 06:29:17;;;;;;;;;;;20.30;99.90;;;;;;5070737;28;19912;-73
2022/07/22 06:31:42;;;;;;;;;;;20.50;99.90;;;;;;5070799;28;19917;-73
2022/07/22 06:34:08;;;;;;;;;;;20.60;99.90;;;;;;5069404;28;19919;-73
2022/07/22 06:36:33;;;;;;;;;;;20.60;99.90;;;;;;5070726;28;19908;-73
2022/07/22 06:38:59;;;;;;;;;;;20.70;99.90;;;;;;5070914;28;19924;-72
2022/07/22 06:41:24;;;;;;;;;;;20.70;99.90;;;;;;5069053;28;19912;-72
2022/07/22 06:43:50;;;;;;;;;;;20.80;99.90;;;;;;5070394;28;19919;-72
2022/07/22 06:46:15;;;;;;;;;;;20.80;99.90;;;;;;5070417;28;20320;-72
2022/07/22 06:48:41;;;;;;;;;;;20.80;99.90;;;;;;5070162;28;19912;-72
2022/07/22 06:51:06;;;;;;;;;;;20.80;99.90;;;;;;5070415;28;19912;-72
2022/07/22 06:53:32;;;;;;;;;;;20.90;99.90;;;;;;5070732;28;20278;-72
2022/07/22 06:55:58;;;;;;;;;;;20.90;99.90;;;;;;5069051;28;19962;-72
2022/07/22 06:58:23;;;;;;;;;;;20.90;99.90;;;;;;5070403;28;19920;-72
2022/07/22 07:00:49;;;;;;;;;;;21.00;99.90;;;;;;5070413;28;19919;-72
2022/07/22 07:03:14;;;;;;;;;;;21.00;99.90;;;;;;5070787;28;20276;-71
2022/07/22 07:05:40;;;;;;;;;;;21.10;99.90;;;;;;5070483;28;19916;-72
2022/07/22 07:08:05;;;;;;;;;;;21.20;99.90;;;;;;5070722;28;19913;-71
2022/07/22 07:10:31;;;;;;;;;;;21.30;99.90;;;;;;5070459;28;19920;-72
2022/07/22 07:12:57;;;;;;;;;;;21.40;99.90;;;;;;5070307;28;19947;-71
2022/07/22 07:15:23;;;;;;;;;;;21.50;99.90;;;;;;5070107;28;19919;-72
2022/07/22 07:17:49;;;;;;;;;;;21.60;99.90;;;;;;5070123;28;19920;-72
2022/07/22 07:20:14;;;;;;;;;;;21.70;99.90;;;;;;5068349;28;19921;-66
2022/07/22 07:22:40;;;;;;;;;;;21.80;99.90;;;;;;5070025;28;19990;-64
2022/07/22 07:25:06;;;;;;;;;;;21.80;99.90;;;;;;5087908;28;20281;-64
2022/07/22 07:27:32;;;;;;;;;;;21.90;99.90;;;;;;5069207;28;19912;-65
2022/07/22 07:29:58;;;;;;;;;;;22.00;99.90;;;;;;5069218;28;19912;-64
2022/07/22 07:32:23;;;;;;;;;;;22.00;99.90;;;;;;5069129;28;20308;-64
2022/07/22 07:34:49;;;;;;;;;;;22.10;99.90;;;;;;5079706;28;19948;-66
2022/07/22 07:37:14;;;;;;;;;;;22.10;99.90;;;;;;5078388;28;19935;-65
2022/07/22 07:39:40;;;;;;;;;;;22.20;99.90;;;;;;5093582;28;19927;-65
2022/07/22 07:42:05;;;;;;;;;;;22.20;99.90;;;;;;5093323;28;20022;-64
2022/07/22 07:44:31;;;;;;;;;;;22.30;99.90;;;;;;5079007;28;19943;-65
2022/07/22 07:46:57;;;;;;;;;;;22.30;99.90;;;;;;5073132;28;19970;-65
2022/07/22 07:49:22;;;;;;;;;;;22.40;99.90;;;;;;5099846;28;20050;-65
2022/07/22 07:51:48;;;;;;;;;;;22.60;99.90;;;;;;5082298;28;20291;-65
2022/07/22 07:54:13;;;;;;;;;;;22.70;99.90;;;;;;5087512;28;20331;-65
2022/07/22 07:56:39;;;;;;;;;;;22.80;99.90;;;;;;5107632;28;19912;-65
2022/07/22 07:59:04;;;;;;;;;;;23.00;99.90;;;;;;5093200;28;20375;-65
2022/07/22 08:01:30;;;;;;;;;;;23.00;99.90;;;;;;5091058;28;19909;-65
2022/07/22 08:03:55;;;;;;;;;;;23.10;99.90;;;;;;5085727;28;19916;-65
2022/07/22 08:06:21;;;;;;;;;;;23.10;99.90;;;;;;5072345;28;19912;-65
2022/07/22 08:08:46;;;;;;;;;;;23.30;99.90;;;;;;5083222;28;20368;-65
2022/07/22 08:11:12;;;;;;;;;;;23.30;99.90;;;;;;5091853;28;19908;-64
2022/07/22 08:13:37;;;;;;;;;;;23.50;99.90;;;;;;5093517;28;20264;-64
2022/07/22 08:16:03;;;;;;;;;;;23.60;99.90;;;;;;5093266;28;19916;-65
2022/07/22 08:18:29;;;;;;;;;;;23.60;99.90;;;;;;5078498;28;19920;-64
2022/07/22 08:20:55;;;;;;;;;;;23.60;99.90;;;;;;5091046;28;20054;-64
2022/07/22 08:23:20;;;;;;;;;;;23.60;99.90;;;;;;5093575;28;19961;-65
2022/07/22 08:25:46;;;;;;;;;;;23.70;99.90;;;;;;5092889;28;20211;-65
2022/07/22 08:28:11;;;;;;;;;;;23.70;99.90;;;;;;5092209;28;19970;-65
2022/07/22 08:30:37;;;;;;;;;;;23.90;99.90;;;;;;5092779;28;19912;-65
2022/07/22 08:33:03;;;;;;;;;;;24.00;99.90;;;;;;5092204;28;19991;-64
2022/07/22 08:35:28;;;;;;;;;;;24.00;99.90;;;;;;5091837;28;20175;-65
2022/07/22 08:37:54;;;;;;;;;;;24.20;99.90;;;;;;5076401;28;19920;-65
2022/07/22 08:40:19;;;;;;;;;;;24.40;99.90;;;;;;5088076;28;19919;-64
2022/07/22 08:42:46;;;;;;;;;;;24.60;99.90;;;;;;5091018;28;19916;-64
2022/07/22 08:45:11;;;;;;;;;;;24.90;99.90;;;;;;5089335;28;20011;-64
2022/07/22 08:47:37;;;;;;;;;;;25.00;99.90;;;;;;5091895;28;20019;-65
2022/07/22 08:50:03;;;;;;;;;;;25.20;99.90;;;;;;5092305;28;19912;-65
2022/07/22 08:52:28;;;;;;;;;;;25.40;99.90;;;;;;5084407;28;20268;-65
2022/07/22 08:54:54;;;;;;;;;;;25.50;99.90;;;;;;5076409;28;19963;-65
2022/07/22 08:57:20;;;;;;;;;;;25.50;99.90;;;;;;5081762;28;19947;-65
2022/07/22 08:59:50;;;;;;;;;;;25.60;99.90;;;;;;5072160;28;20291;-65
2022/07/22 09:02:15;;;;;;;;;;;25.70;99.90;;;;;;5084269;28;20034;-65
2022/07/22 09:04:54;;;;;;;;;;;25.70;99.90;;;;;;5086499;28;20094;-64
2022/07/22 09:07:36;;;;;;;;;;;25.70;99.90;;;;;;5071799;28;19919;-66
2022/07/22 09:10:06;;;;;;;;;;;25.90;99.90;;;;;;5085915;28;19920;-66
2022/07/22 09:12:32;;;;;;;;;;;26.20;99.90;;;;;;5076843;28;20236;-66
2022/07/22 09:14:58;;;;;;;;;;;26.20;99.90;;;;;;5075397;28;19923;-64
2022/07/22 09:17:24;;;;;;;;;;;26.10;99.90;;;;;;5079454;28;19920;-65
2022/07/22 09:19:49;;;;;;;;;;;26.20;99.80;;;;;;5075202;28;19928;-65
2022/07/22 09:22:29;;;;;;;;;;;26.30;99.70;;;;;;5082726;28;20407;-65
2022/07/22 09:24:55;;;;;;;;;;;26.40;98.90;;;;;;5080576;28;19920;-64
2022/07/22 09:27:24;;;;;;;;;;;26.50;98.70;;;;;;5080453;28;19958;-65
2022/07/22 09:29:50;;;;;;;;;;;26.50;98.40;;;;;;5081271;28;19916;-65
2022/07/22 09:32:16;;;;;;;;;;;26.50;98.50;;;;;;5079473;28;19934;-65
2022/07/22 09:34:41;;;;;;;;;;;26.60;98.30;;;;;;5085277;28;19916;-65
2022/07/22 09:37:07;;;;;;;;;;;26.60;98.00;;;;;;5077217;28;20351;-65
2022/07/22 09:39:33;;;;;;;;;;;26.60;97.80;;;;;;5088844;28;20340;-64
2022/07/22 09:41:59;;;;;;;;;;;26.70;97.40;;;;;;5076750;28;19923;-64
2022/07/22 09:44:24;;;;;;;;;;;26.80;96.60;;;;;;5078532;28;19927;-65
2022/07/22 09:46:50;;;;;;;;;;;26.80;96.30;;;;;;5070827;28;19909;-65
2022/07/22 09:49:32;;;;;;;;;;;26.70;96.40;;;;;;5070798;28;19923;-64
2022/07/22 09:51:59;;;;;;;;;;;26.70;96.20;;;;;;5070821;28;19923;-65
2022/07/22 09:54:25;;;;;;;;;;;26.80;96.00;;;;;;5081403;28;20437;-65
2022/07/22 09:56:50;;;;;;;;;;;26.80;95.80;;;;;;5085674;28;20014;-64
2022/07/22 09:59:16;;;;;;;;;;;26.90;95.20;;;;;;5073941;28;20057;-64
2022/07/22 10:01:42;;;;;;;;;;;27.00;95.10;;;;;;5090321;28;19918;-65
2022/07/22 10:04:08;;;;;;;;;;;27.20;95.10;;;;;;5085054;28;20440;-64
2022/07/22 10:06:34;;;;;;;;;;;27.30;94.80;;;;;;5090778;28;19908;-65
2022/07/22 10:08:59;;;;;;;;;;;27.40;94.20;;;;;;5081871;28;19958;-65
2022/07/22 10:11:25;;;;;;;;;;;27.50;94.00;;;;;;5070870;28;20000;-65
2022/07/22 10:13:50;;;;;;;;;;;27.60;93.50;;;;;;5069720;28;19912;-64
2022/07/22 10:16:16;;;;;;;;;;;27.80;93.10;;;;;;5074918;28;20007;-64
2022/07/22 10:18:46;;;;;;;;;;;27.80;93.10;;;;;;5089230;28;20257;-65
2022/07/22 10:21:11;;;;;;;;;;;28.00;92.60;;;;;;5088364;28;19922;-64
2022/07/22 10:23:57;;;;;;;;;;;28.00;92.20;;;;;;5089075;28;20331;-65
2022/07/22 10:26:42;;;;;;;;;;;28.10;91.60;;;;;;5090309;28;19912;-64
2022/07/22 10:29:24;;;;;;;;;;;28.30;91.40;;;;;;5087582;28;19920;-64
2022/07/22 10:31:49;;;;;;;;;;;28.60;91.30;;;;;;5090459;28;19912;-64
2022/07/22 10:34:15;;;;;;;;;;;28.70;91.20;;;;;;5076977;28;19970;-64
2022/07/22 10:36:42;;;;;;;;;;;28.80;90.80;;;;;;5069862;28;19912;-65
2022/07/22 10:39:09;;;;;;;;;;;29.00;90.70;;;;;;5071291;28;19924;-65
2022/07/22 10:41:36;;;;;;;;;;;29.10;90.20;;;;;;5081508;28;19930;-65
2022/07/22 10:44:02;;;;;;;;;;;29.20;89.80;;;;;;5076236;28;19916;-65
2022/07/22 10:46:46;;;;;;;;;;;29.40;89.20;;;;;;5069850;28;19958;-65
2022/07/22 10:49:14;;;;;;;;;;;29.50;88.70;;;;;;5069849;28;19955;-65
2022/07/22 10:52:00;;;;;;;;;;;29.60;88.30;;;;;;5070667;28;20780;-65
2022/07/22 10:54:25;;;;;;;;;;;29.50;87.90;;;;;;5073773;28;19950;-66
2022/07/22 10:56:51;;;;;;;;;;;29.60;87.20;;;;;;5084955;28;19913;-65
2022/07/22 10:59:19;;;;;;;;;;;29.50;86.60;;;;;;5083145;28;20019;-65
2022/07/22 11:01:46;;;;;;;;;;;29.40;87.50;;;;;;5078932;28;19912;-64
2022/07/22 11:04:23;;;;;;;;;;;29.50;87.30;;;;;;5069711;28;19912;-65
2022/07/22 11:06:49;;;;;;;;;;;29.60;86.50;;;;;;5070591;28;20352;-63
2022/07/22 11:09:16;;;;;;;;;;;29.60;85.80;;;;;;5070911;28;20253;-65
2022/07/22 11:11:43;;;;;;;;;;;29.70;85.40;;;;;;5088424;28;19916;-65
2022/07/22 11:14:16;;;;;;;;;;;29.60;85.80;;;;;;5083173;28;20003;-65
2022/07/22 11:16:42;;;;;;;;;;;29.60;85.80;;;;;;5080221;28;19998;-64
2022/07/22 11:19:07;;;;;;;;;;;29.50;85.70;;;;;;5073567;28;20035;-65
2022/07/22 11:21:33;;;;;;;;;;;29.50;86.00;;;;;;5073558;28;19913;-65
2022/07/22 11:24:01;;;;;;;;;;;29.50;85.70;;;;;;5083892;28;19926;-65
2022/07/22 11:26:35;;;;;;;;;;;29.70;84.60;;;;;;5073701;28;19912;-65
2022/07/22 11:29:01;;;;;;;;;;;29.90;83.70;;;;;;5078102;28;19925;-65
2022/07/22 11:31:26;;;;;;;;;;;29.80;83.10;;;;;;5073899;28;19909;-65
2022/07/22 11:33:52;;;;;;;;;;;29.90;83.30;;;;;;5083285;28;19963;-66
2022/07/22 11:36:17;;;;;;;;;;;30.00;83.00;;;;;;5093098;28;20245;-66
2022/07/22 11:38:45;;;;;;;;;;;30.00;82.60;;;;;;5072766;28;20007;-65
2022/07/22 11:41:11;;;;;;;;;;;30.30;82.90;;;;;;5084317;28;19948;-65
2022/07/22 11:43:40;;;;;;;;;;;30.40;82.60;;;;;;5086664;28;19966;-65
2022/07/22 11:46:05;;;;;;;;;;;30.10;81.60;;;;;;5071361;28;20364;-65
2022/07/22 11:48:31;;;;;;;;;;;29.90;81.70;;;;;;5072099;28;19912;-66
2022/07/22 11:51:00;;;;;;;;;;;29.80;82.40;;;;;;5070233;28;19917;-65
2022/07/22 11:53:26;;;;;;;;;;;29.80;82.80;;;;;;5082035;28;19920;-65
2022/07/22 11:55:55;;;;;;;;;;;29.90;82.30;;;;;;5076659;28;19916;-65
2022/07/22 11:58:33;;;;;;;;;;;29.90;81.50;;;;;;5076119;28;19921;-65
2022/07/22 12:00:58;;;;;;;;;;;29.90;81.30;;;;;;5076959;28;19920;-65
2022/07/22 12:03:24;;;;;;;;;;;29.90;81.20;;;;;;5086227;28;19946;-65
2022/07/22 12:05:49;;;;;;;;;;;29.80;81.00;;;;;;5090527;28;19915;-65
2022/07/22 12:08:15;;;;;;;;;;;29.70;81.20;;;;;;5085769;28;19921;-65
2022/07/22 12:10:41;;;;;;;;;;;29.40;81.30;;;;;;5073241;28;19924;-65
2022/07/22 12:13:10;;;;;;;;;;;29.10;81.50;;;;;;5075537;28;19912;-65
2022/07/22 12:15:35;;;;;;;;;;;28.90;82.20;;;;;;5082164;28;20404;-65
2022/07/22 12:18:21;;;;;;;;;;;28.90;82.60;;;;;;5088638;28;20003;-65
2022/07/22 12:20:48;;;;;;;;;;;29.20;81.60;;;;;;5088558;28;19955;-65
2022/07/22 12:23:13;;;;;;;;;;;29.10;80.60;;;;;;5090914;28;19916;-65
2022/07/22 12:25:58;;;;;;;;;;;28.90;80.70;;;;;;5081661;28;19917;-65
2022/07/22 12:28:25;;;;;;;;;;;28.70;81.40;;;;;;5081239;28;19944;-65
2022/07/22 12:30:52;;;;;;;;;;;28.50;81.90;;;;;;5085258;28;20302;-65
2022/07/22 12:33:18;;;;;;;;;;;28.40;82.00;;;;;;5103720;28;20253;-66
2022/07/22 12:35:44;;;;;;;;;;;28.40;82.40;;;;;;5091196;28;19916;-65
2022/07/22 12:38:10;;;;;;;;;;;28.30;81.50;;;;;;5081900;28;19920;-66
2022/07/22 12:40:36;;;;;;;;;;;28.30;81.80;;;;;;5089846;28;20014;-65
2022/07/22 12:43:03;;;;;;;;;;;28.30;82.30;;;;;;5080785;28;20153;-66
2022/07/22 12:45:30;;;;;;;;;;;28.10;82.50;;;;;;5091398;28;20000;-66
2022/07/22 12:47:59;;;;;;;;;;;28.00;82.70;;;;;;5092364;28;20460;-64
2022/07/22 12:50:24;;;;;;;;;;;27.90;82.20;;;;;;5088914;28;19916;-64
2022/07/22 12:52:51;;;;;;;;;;;27.70;82.60;;;;;;5085208;28;19927;-64
2022/07/22 12:55:17;;;;;;;;;;;27.60;82.60;;;;;;5079273;28;19920;-64
2022/07/22 12:57:42;;;;;;;;;;;27.60;82.50;;;;;;5083121;28;19920;-68
2022/07/22 13:00:08;;;;;;;;;;;27.60;82.70;;;;;;5090968;28;19995;-64
2022/07/22 13:02:34;;;;;;;;;;;27.50;83.40;;;;;;5090839;28;20365;-65
2022/07/22 13:04:59;;;;;;;;;;;27.40;83.10;;;;;;5080022;28;19916;-65
2022/07/22 13:07:25;;;;;;;;;;;27.30;83.40;;;;;;5071181;28;20364;-65
2022/07/22 13:09:50;;;;;;;;;;;27.30;84.00;;;;;;5082208;28;19989;-65
2022/07/22 13:12:16;;;;;;;;;;;27.40;84.30;;;;;;5078290;28;19920;-64
2022/07/22 13:14:41;;;;;;;;;;;27.40;84.60;;;;;;5071119;28;19926;-65
2022/07/22 13:17:07;;;;;;;;;;;27.40;83.90;;;;;;5075994;28;19920;-64
2022/07/22 13:19:32;;;;;;;;;;;27.40;83.00;;;;;;5071900;28;19921;-64
2022/07/22 13:21:58;;;;;;;;;;;27.30;83.20;;;;;;5073428;28;19916;-64
2022/07/22 13:24:23;;;;;;;;;;;27.30;83.20;;;;;;5077093;28;19924;-64
2022/07/22 13:26:49;;;;;;;;;;;27.30;83.00;;;;;;5075730;28;19965;-64
2022/07/22 13:29:14;;;;;;;;;;;27.30;84.00;;;;;;5075886;28;20010;-64
2022/07/22 13:31:40;;;;;;;;;;;27.30;84.10;;;;;;5074387;28;19926;-64
2022/07/22 13:34:05;;;;;;;;;;;27.30;84.20;;;;;;5077390;28;19924;-64
2022/07/22 13:36:33;;;;;;;;;;;27.20;83.70;;;;;;5072412;28;19968;-65
2022/07/22 13:38:59;;;;;;;;;;;27.20;84.10;;;;;;5073826;28;19925;-65
2022/07/22 13:41:25;;;;;;;;;;;27.10;83.60;;;;;;5071637;28;20355;-64
2022/07/22 13:43:51;;;;;;;;;;;27.10;82.70;;;;;;5070727;28;19920;-65
2022/07/22 13:46:17;;;;;;;;;;;27.10;82.70;;;;;;5067625;28;19944;-65
2022/07/22 13:48:43;;;;;;;;;;;27.00;83.60;;;;;;5067377;28;19967;-65
2022/07/22 13:51:08;;;;;;;;;;;26.90;83.70;;;;;;5070129;28;19964;-64
2022/07/22 13:53:34;;;;;;;;;;;26.90;84.00;;;;;;5070893;28;19920;-65
2022/07/22 13:56:00;;;;;;;;;;;26.80;83.90;;;;;;5067864;28;19981;-65
2022/07/22 13:58:25;;;;;;;;;;;26.70;84.20;;;;;;5082247;28;19924;-65
2022/07/22 14:00:51;;;;;;;;;;;26.70;85.10;;;;;;5089374;28;19967;-66
2022/07/22 14:03:16;;;;;;;;;;;26.60;86.30;;;;;;5071668;28;19912;-67
2022/07/22 14:05:43;;;;;;;;;;;26.50;87.20;;;;;;5069905;28;19923;-66
2022/07/22 14:08:08;;;;;;;;;;;26.50;86.80;;;;;;5083235;28;19912;-67
2022/07/22 14:10:34;;;;;;;;;;;26.40;86.80;;;;;;5089525;28;19934;-67